sensor_id;sensor_type;location;lat;lon;timestamp;pressure;altitude;pressure_sealevel;temperature;humidity
37170;BME280;23062;13.952;100.608;2023-10-31T00:02:06;1013.49;;;29.92;71.03
37170;BME280;23062;13.952;100.608;2023-10-31T00:06:49;1013.70;;;29.89;70.96
37170;BME280;23062;13.952;100.608;2023-10-31T00:11:25;1013.85;;;29.94;70.61
37170;BME280;23062;13.952;100.608;2023-10-31T00:16:09;1013.98;;;29.95;70.78
37170;BME280;23062;13.952;100.608;2023-10-31T00:20:45;1014.11;;;29.95;70.90
37170;BME280;23062;13.952;100.608;2023-10-31T00:25:30;1014.15;;;29.99;71.12
37170;BME280;23062;13.952;100.608;2023-10-31T00:30:13;1014.14;;;29.89;70.50
37170;BME280;23062;13.952;100.608;2023-10-31T00:34:58;1014.27;;;29.98;70.67
37170;BME280;23062;13.952;100.608;2023-10-31T00:39:34;1014.37;;;29.95;69.99
37170;BME280;23062;13.952;100.608;2023-10-31T00:44:12;1014.46;;;29.95;70.13
37170;BME280;23062;13.952;100.608;2023-10-31T00:48:52;1014.54;;;29.99;70.20
37170;BME280;23062;13.952;100.608;2023-10-31T00:53:33;1014.68;;;30.02;70.21
37170;BME280;23062;13.952;100.608;2023-10-31T00:58:17;1014.74;;;29.99;70.46
37170;BME280;23062;13.952;100.608;2023-10-31T01:03:02;1014.79;;;29.70;71.49
37170;BME280;23062;13.952;100.608;2023-10-31T01:07:45;1014.71;;;29.71;71.20
37170;BME280;23062;13.952;100.608;2023-10-31T01:12:31;1014.78;;;29.79;71.16
37170;BME280;23062;13.952;100.608;2023-10-31T01:17:16;1014.83;;;29.67;71.63
37170;BME280;23062;13.952;100.608;2023-10-31T01:21:59;1014.89;;;29.64;71.53
37170;BME280;23062;13.952;100.608;2023-10-31T01:26:44;1014.99;;;29.67;71.53
37170;BME280;23062;13.952;100.608;2023-10-31T01:31:27;1015.11;;;29.88;70.68
37170;BME280;23062;13.952;100.608;2023-10-31T01:36:10;1015.20;;;29.95;70.61
37170;BME280;23062;13.952;100.608;2023-10-31T01:40:49;1015.24;;;29.95;70.80
37170;BME280;23062;13.952;100.608;2023-10-31T01:45:25;1015.26;;;29.95;70.41
37170;BME280;23062;13.952;100.608;2023-10-31T01:50:02;1015.36;;;30.11;70.25
37170;BME280;23062;13.952;100.608;2023-10-31T01:54:41;1015.49;;;30.02;70.45
37170;BME280;23062;13.952;100.608;2023-10-31T01:59:19;1015.57;;;29.83;71.75
37170;BME280;23062;13.952;100.608;2023-10-31T02:04:02;1015.60;;;29.73;72.15
37170;BME280;23062;13.952;100.608;2023-10-31T02:08:49;1015.70;;;29.82;72.11
37170;BME280;23062;13.952;100.608;2023-10-31T02:13:25;1015.77;;;29.81;71.78
37170;BME280;23062;13.952;100.608;2023-10-31T02:18:09;1015.76;;;29.80;71.80
37170;BME280;23062;13.952;100.608;2023-10-31T02:22:46;1015.76;;;29.75;71.65
37170;BME280;23062;13.952;100.608;2023-10-31T02:27:30;1015.74;;;29.80;71.71
37170;BME280;23062;13.952;100.608;2023-10-31T02:32:07;1015.73;;;29.84;71.76
37170;BME280;23062;13.952;100.608;2023-10-31T02:36:51;1015.70;;;29.91;71.57
37170;BME280;23062;13.952;100.608;2023-10-31T02:41:34;1015.66;;;29.91;71.72
37170;BME280;23062;13.952;100.608;2023-10-31T02:46:15;1015.61;;;29.98;71.71
37170;BME280;23062;13.952;100.608;2023-10-31T02:50:56;1015.60;;;29.94;71.86
37170;BME280;23062;13.952;100.608;2023-10-31T02:55:45;1015.52;;;29.99;71.53
37170;BME280;23062;13.952;100.608;2023-10-31T03:00:27;1015.42;;;30.01;71.09
37170;BME280;23062;13.952;100.608;2023-10-31T03:05:04;1015.32;;;30.06;70.99
37170;BME280;23062;13.952;100.608;2023-10-31T03:09:46;1015.21;;;30.14;71.12
37170;BME280;23062;13.952;100.608;2023-10-31T03:14:25;1015.07;;;30.17;71.11
37170;BME280;23062;13.952;100.608;2023-10-31T03:19:06;1015.00;;;30.25;70.88
37170;BME280;23062;13.952;100.608;2023-10-31T03:23:47;1014.99;;;30.30;69.93
37170;BME280;23062;13.952;100.608;2023-10-31T03:28:29;1014.96;;;30.38;69.46
37170;BME280;23062;13.952;100.608;2023-10-31T03:33:14;1014.85;;;30.52;68.45
37170;BME280;23062;13.952;100.608;2023-10-31T03:37:56;1014.83;;;30.50;68.47
37170;BME280;23062;13.952;100.608;2023-10-31T03:42:40;1014.69;;;30.59;67.39
37170;BME280;23062;13.952;100.608;2023-10-31T03:47:22;1014.63;;;30.55;67.67
37170;BME280;23062;13.952;100.608;2023-10-31T03:52:06;1014.60;;;30.50;68.52
37170;BME280;23062;13.952;100.608;2023-10-31T03:56:50;1014.45;;;30.62;67.34
37170;BME280;23062;13.952;100.608;2023-10-31T04:01:26;1014.35;;;30.68;67.27
37170;BME280;23062;13.952;100.608;2023-10-31T04:06:10;1014.34;;;30.74;66.84
37170;BME280;23062;13.952;100.608;2023-10-31T04:10:49;1014.37;;;30.79;66.37
37170;BME280;23062;13.952;100.608;2023-10-31T04:15:33;1014.31;;;30.79;65.71
37170;BME280;23062;13.952;100.608;2023-10-31T04:20:19;1014.24;;;30.78;65.72
37170;BME280;23062;13.952;100.608;2023-10-31T04:24:59;1014.15;;;30.70;66.49
37170;BME280;23062;13.952;100.608;2023-10-31T04:29:43;1014.05;;;30.82;66.09
37170;BME280;23062;13.952;100.608;2023-10-31T04:34:25;1013.92;;;30.75;66.43
37170;BME280;23062;13.952;100.608;2023-10-31T04:39:09;1013.85;;;30.79;66.09
37170;BME280;23062;13.952;100.608;2023-10-31T04:43:45;1013.77;;;30.80;65.87
37170;BME280;23062;13.952;100.608;2023-10-31T04:48:30;1013.69;;;30.80;65.86
37170;BME280;23062;13.952;100.608;2023-10-31T04:53:05;1013.54;;;30.86;65.76
37170;BME280;23062;13.952;100.608;2023-10-31T04:57:49;1013.42;;;30.91;65.26
37170;BME280;23062;13.952;100.608;2023-10-31T05:02:27;1013.22;;;30.93;64.88
37170;BME280;23062;13.952;100.608;2023-10-31T05:07:12;1013.15;;;30.93;64.71
37170;BME280;23062;13.952;100.608;2023-10-31T05:11:49;1013.06;;;31.11;63.69
37170;BME280;23062;13.952;100.608;2023-10-31T05:16:38;1012.91;;;31.00;63.96
37170;BME280;23062;13.952;100.608;2023-10-31T05:21:11;1012.79;;;31.02;63.92
37170;BME280;23062;13.952;100.608;2023-10-31T05:25:50;1012.73;;;31.12;62.96
37170;BME280;23062;13.952;100.608;2023-10-31T05:30:26;1012.61;;;31.06;63.54
37170;BME280;23062;13.952;100.608;2023-10-31T05:35:10;1012.51;;;31.08;62.87
37170;BME280;23062;13.952;100.608;2023-10-31T05:39:52;1012.35;;;31.02;63.31
37170;BME280;23062;13.952;100.608;2023-10-31T05:44:37;1012.39;;;31.12;62.64
37170;BME280;23062;13.952;100.608;2023-10-31T05:49:13;1012.33;;;31.13;62.42
37170;BME280;23062;13.952;100.608;2023-10-31T05:53:50;1012.28;;;31.16;62.14
37170;BME280;23062;13.952;100.608;2023-10-31T05:58:33;1012.14;;;31.14;61.95
37170;BME280;23062;13.952;100.608;2023-10-31T06:03:13;1012.07;;;31.08;62.77
37170;BME280;23062;13.952;100.608;2023-10-31T06:07:49;1012.05;;;31.30;61.68
37170;BME280;23062;13.952;100.608;2023-10-31T06:12:34;1011.95;;;31.20;62.22
37170;BME280;23062;13.952;100.608;2023-10-31T06:17:17;1011.94;;;31.32;61.73
37170;BME280;23062;13.952;100.608;2023-10-31T06:21:54;1011.83;;;31.24;62.23
37170;BME280;23062;13.952;100.608;2023-10-31T06:26:37;1011.79;;;31.31;61.79
37170;BME280;23062;13.952;100.608;2023-10-31T06:31:23;1011.67;;;31.37;61.58
37170;BME280;23062;13.952;100.608;2023-10-31T06:36:01;1011.53;;;31.29;61.99
37170;BME280;23062;13.952;100.608;2023-10-31T06:40:38;1011.41;;;31.29;62.47
37170;BME280;23062;13.952;100.608;2023-10-31T06:45:22;1011.28;;;31.31;62.48
37170;BME280;23062;13.952;100.608;2023-10-31T06:50:08;1011.17;;;31.29;62.66
37170;BME280;23062;13.952;100.608;2023-10-31T06:54:53;1011.07;;;31.33;62.00
37170;BME280;23062;13.952;100.608;2023-10-31T06:59:37;1010.87;;;31.32;62.26
37170;BME280;23062;13.952;100.608;2023-10-31T07:04:16;1010.77;;;31.53;61.79
37170;BME280;23062;13.952;100.608;2023-10-31T07:08:56;1010.68;;;31.56;61.41
37170;BME280;23062;13.952;100.608;2023-10-31T07:13:42;1010.64;;;31.49;61.74
37170;BME280;23062;13.952;100.608;2023-10-31T07:18:26;1010.57;;;31.51;62.05
37170;BME280;23062;13.952;100.608;2023-10-31T07:23:12;1010.56;;;31.50;61.93
37170;BME280;23062;13.952;100.608;2023-10-31T07:27:57;1010.52;;;31.52;61.63
37170;BME280;23062;13.952;100.608;2023-10-31T07:32:38;1010.45;;;31.52;61.24
37170;BME280;23062;13.952;100.608;2023-10-31T07:37:16;1010.40;;;31.46;61.86
37170;BME280;23062;13.952;100.608;2023-10-31T07:41:59;1010.24;;;31.54;61.41
37170;BME280;23062;13.952;100.608;2023-10-31T07:46:37;1010.25;;;31.42;62.15
37170;BME280;23062;13.952;100.608;2023-10-31T07:51:14;1010.23;;;31.51;61.85
37170;BME280;23062;13.952;100.608;2023-10-31T07:55:58;1010.16;;;31.51;61.88
37170;BME280;23062;13.952;100.608;2023-10-31T08:00:37;1010.16;;;31.51;61.88
37170;BME280;23062;13.952;100.608;2023-10-31T08:05:13;1010.14;;;31.47;61.89
37170;BME280;23062;13.952;100.608;2023-10-31T08:09:50;1010.07;;;31.48;61.66
37170;BME280;23062;13.952;100.608;2023-10-31T08:14:32;1010.08;;;31.42;62.23
37170;BME280;23062;13.952;100.608;2023-10-31T08:19:09;1010.06;;;31.46;61.79
37170;BME280;23062;13.952;100.608;2023-10-31T08:23:56;1009.99;;;31.53;61.51
37170;BME280;23062;13.952;100.608;2023-10-31T08:28:32;1010.01;;;31.47;61.73
37170;BME280;23062;13.952;100.608;2023-10-31T08:33:14;1010.03;;;31.52;61.40
37170;BME280;23062;13.952;100.608;2023-10-31T08:37:58;1010.00;;;31.42;61.95
37170;BME280;23062;13.952;100.608;2023-10-31T08:42:34;1009.89;;;31.38;61.96
37170;BME280;23062;13.952;100.608;2023-10-31T08:47:17;1009.90;;;31.41;61.75
37170;BME280;23062;13.952;100.608;2023-10-31T08:52:01;1009.92;;;31.45;61.71
37170;BME280;23062;13.952;100.608;2023-10-31T08:56:45;1009.89;;;31.42;61.65
37170;BME280;23062;13.952;100.608;2023-10-31T09:01:28;1009.83;;;31.33;62.12
37170;BME280;23062;13.952;100.608;2023-10-31T09:06:07;1009.81;;;31.34;62.17
37170;BME280;23062;13.952;100.608;2023-10-31T09:10:50;1009.87;;;31.47;61.75
37170;BME280;23062;13.952;100.608;2023-10-31T09:15:27;1009.84;;;31.44;61.69
37170;BME280;23062;13.952;100.608;2023-10-31T09:20:03;1009.80;;;31.48;61.20
37170;BME280;23062;13.952;100.608;2023-10-31T09:24:48;1009.82;;;31.45;61.13
37170;BME280;23062;13.952;100.608;2023-10-31T09:29:24;1009.79;;;31.48;61.19
37170;BME280;23062;13.952;100.608;2023-10-31T09:34:04;1009.89;;;31.54;60.89
37170;BME280;23062;13.952;100.608;2023-10-31T09:38:39;1009.92;;;31.60;60.00
37170;BME280;23062;13.952;100.608;2023-10-31T09:43:15;1009.88;;;31.52;60.65
37170;BME280;23062;13.952;100.608;2023-10-31T09:47:51;1009.95;;;31.49;61.83
37170;BME280;23062;13.952;100.608;2023-10-31T09:52:29;1009.96;;;31.45;63.58
37170;BME280;23062;13.952;100.608;2023-10-31T09:57:14;1010.02;;;31.42;63.93
37170;BME280;23062;13.952;100.608;2023-10-31T10:01:54;1010.03;;;31.38;64.45
37170;BME280;23062;13.952;100.608;2023-10-31T10:06:39;1010.10;;;31.40;63.21
37170;BME280;23062;13.952;100.608;2023-10-31T10:11:15;1010.27;;;31.38;63.91
37170;BME280;23062;13.952;100.608;2023-10-31T10:16:00;1010.35;;;31.36;63.89
37170;BME280;23062;13.952;100.608;2023-10-31T10:20:59;1010.33;;;31.34;63.91
37170;BME280;23062;13.952;100.608;2023-10-31T10:25:35;1010.32;;;31.34;64.15
37170;BME280;23062;13.952;100.608;2023-10-31T10:30:12;1010.37;;;31.34;64.13
37170;BME280;23062;13.952;100.608;2023-10-31T10:34:54;1010.39;;;31.31;63.86
37170;BME280;23062;13.952;100.608;2023-10-31T10:39:37;1010.40;;;31.37;63.65
37170;BME280;23062;13.952;100.608;2023-10-31T10:44:19;1010.40;;;31.29;63.13
37170;BME280;23062;13.952;100.608;2023-10-31T10:49:07;1010.43;;;31.28;63.80
37170;BME280;23062;13.952;100.608;2023-10-31T10:53:57;1010.58;;;31.33;64.02
37170;BME280;23062;13.952;100.608;2023-10-31T10:59:01;1010.64;;;31.34;64.04
37170;BME280;23062;13.952;100.608;2023-10-31T11:03:45;1010.75;;;31.32;63.89
37170;BME280;23062;13.952;100.608;2023-10-31T11:08:30;1010.78;;;31.35;63.65
37170;BME280;23062;13.952;100.608;2023-10-31T11:13:14;1010.85;;;31.34;63.89
37170;BME280;23062;13.952;100.608;2023-10-31T11:17:59;1010.90;;;31.29;64.26
37170;BME280;23062;13.952;100.608;2023-10-31T11:22:45;1011.07;;;31.33;64.26
37170;BME280;23062;13.952;100.608;2023-10-31T11:27:30;1011.24;;;31.32;64.54
37170;BME280;23062;13.952;100.608;2023-10-31T11:32:10;1011.37;;;31.33;64.70
37170;BME280;23062;13.952;100.608;2023-10-31T11:36:47;1011.50;;;31.32;64.89
37170;BME280;23062;13.952;100.608;2023-10-31T11:41:23;1011.55;;;31.33;65.14
37170;BME280;23062;13.952;100.608;2023-10-31T11:46:04;1011.71;;;31.32;65.64
37170;BME280;23062;13.952;100.608;2023-10-31T11:50:50;1011.80;;;31.27;65.45
37170;BME280;23062;13.952;100.608;2023-10-31T11:55:36;1011.85;;;31.27;65.03
37170;BME280;23062;13.952;100.608;2023-10-31T12:00:22;1011.91;;;31.21;65.43
37170;BME280;23062;13.952;100.608;2023-10-31T12:05:10;1011.97;;;31.25;65.85
37170;BME280;23062;13.952;100.608;2023-10-31T12:09:49;1012.05;;;31.42;65.36
37170;BME280;23062;13.952;100.608;2023-10-31T12:14:36;1012.17;;;31.44;65.34
37170;BME280;23062;13.952;100.608;2023-10-31T12:19:22;1012.24;;;31.28;65.65
37170;BME280;23062;13.952;100.608;2023-10-31T12:24:18;1012.34;;;31.29;65.87
37170;BME280;23062;13.952;100.608;2023-10-31T12:29:10;1012.52;;;31.29;66.13
37170;BME280;23062;13.952;100.608;2023-10-31T12:33:57;1012.53;;;31.28;66.35
37170;BME280;23062;13.952;100.608;2023-10-31T12:38:39;1012.57;;;31.23;66.54
37170;BME280;23062;13.952;100.608;2023-10-31T12:43:19;1012.62;;;31.21;66.59
37170;BME280;23062;13.952;100.608;2023-10-31T12:52:53;1012.78;;;31.19;66.50
37170;BME280;23062;13.952;100.608;2023-10-31T12:57:37;1012.87;;;31.20;66.30
37170;BME280;23062;13.952;100.608;2023-10-31T13:02:23;1012.94;;;31.19;66.11
37170;BME280;23062;13.952;100.608;2023-10-31T13:07:09;1013.00;;;31.35;65.62
37170;BME280;23062;13.952;100.608;2023-10-31T13:11:54;1013.14;;;31.59;64.93
37170;BME280;23062;13.952;100.608;2023-10-31T13:16:41;1013.15;;;31.65;64.71
37170;BME280;23062;13.952;100.608;2023-10-31T13:21:29;1013.24;;;31.66;64.73
37170;BME280;23062;13.952;100.608;2023-10-31T13:26:17;1013.30;;;31.67;64.64
37170;BME280;23062;13.952;100.608;2023-10-31T13:31:06;1013.31;;;31.68;64.56
37170;BME280;23062;13.952;100.608;2023-10-31T13:35:52;1013.37;;;31.69;64.53
37170;BME280;23062;13.952;100.608;2023-10-31T13:40:41;1013.39;;;31.69;64.58
37170;BME280;23062;13.952;100.608;2023-10-31T13:45:26;1013.49;;;31.69;64.57
37170;BME280;23062;13.952;100.608;2023-10-31T13:50:13;1013.51;;;31.69;64.68
37170;BME280;23062;13.952;100.608;2023-10-31T13:54:52;1013.57;;;31.71;64.57
37170;BME280;23062;13.952;100.608;2023-10-31T13:59:37;1013.62;;;31.71;64.57
37170;BME280;23062;13.952;100.608;2023-10-31T14:04:28;1013.57;;;31.71;64.71
37170;BME280;23062;13.952;100.608;2023-10-31T14:09:19;1013.58;;;31.69;64.68
37170;BME280;23062;13.952;100.608;2023-10-31T14:14:00;1013.67;;;31.70;64.65
37170;BME280;23062;13.952;100.608;2023-10-31T14:18:40;1013.75;;;31.71;64.61
37170;BME280;23062;13.952;100.608;2023-10-31T14:23:26;1013.72;;;31.70;64.64
37170;BME280;23062;13.952;100.608;2023-10-31T14:28:10;1013.79;;;31.70;64.66
37170;BME280;23062;13.952;100.608;2023-10-31T14:32:52;1013.78;;;31.71;64.65
37170;BME280;23062;13.952;100.608;2023-10-31T14:37:30;1013.79;;;31.70;64.67
37170;BME280;23062;13.952;100.608;2023-10-31T14:42:15;1013.81;;;31.68;64.77
37170;BME280;23062;13.952;100.608;2023-10-31T14:47:03;1013.82;;;31.67;64.80
37170;BME280;23062;13.952;100.608;2023-10-31T14:51:44;1013.84;;;31.67;64.85
37170;BME280;23062;13.952;100.608;2023-10-31T14:56:25;1013.86;;;31.67;64.85
37170;BME280;23062;13.952;100.608;2023-10-31T15:01:10;1013.93;;;31.67;64.86
37170;BME280;23062;13.952;100.608;2023-10-31T15:05:54;1013.93;;;31.66;64.90
37170;BME280;23062;13.952;100.608;2023-10-31T15:10:38;1013.96;;;31.67;65.02
37170;BME280;23062;13.952;100.608;2023-10-31T15:15:24;1014.01;;;31.66;65.07
37170;BME280;23062;13.952;100.608;2023-10-31T15:20:02;1014.03;;;31.65;65.13
37170;BME280;23062;13.952;100.608;2023-10-31T15:24:39;1014.06;;;31.66;65.12
37170;BME280;23062;13.952;100.608;2023-10-31T15:29:24;1014.09;;;31.65;65.18
37170;BME280;23062;13.952;100.608;2023-10-31T15:34:07;1013.98;;;31.65;65.26
37170;BME280;23062;13.952;100.608;2023-10-31T15:38:51;1014.10;;;31.64;65.33
37170;BME280;23062;13.952;100.608;2023-10-31T15:43:36;1014.04;;;31.63;65.38
37170;BME280;23062;13.952;100.608;2023-10-31T15:48:14;1013.94;;;31.63;65.32
37170;BME280;23062;13.952;100.608;2023-10-31T15:52:58;1013.94;;;31.63;65.40
37170;BME280;23062;13.952;100.608;2023-10-31T15:57:37;1013.91;;;31.65;65.41
37170;BME280;23062;13.952;100.608;2023-10-31T16:02:13;1013.90;;;31.65;65.44
37170;BME280;23062;13.952;100.608;2023-10-31T16:06:59;1013.87;;;31.64;65.52
37170;BME280;23062;13.952;100.608;2023-10-31T16:11:43;1013.87;;;31.63;65.62
37170;BME280;23062;13.952;100.608;2023-10-31T16:16:24;1013.75;;;31.64;65.57
37170;BME280;23062;13.952;100.608;2023-10-31T16:21:02;1013.70;;;31.64;65.57
37170;BME280;23062;13.952;100.608;2023-10-31T16:25:47;1013.66;;;31.63;65.63
37170;BME280;23062;13.952;100.608;2023-10-31T16:30:31;1013.64;;;31.62;65.70
37170;BME280;23062;13.952;100.608;2023-10-31T16:35:15;1013.69;;;31.60;65.77
37170;BME280;23062;13.952;100.608;2023-10-31T16:40:00;1013.66;;;31.59;65.78
37170;BME280;23062;13.952;100.608;2023-10-31T16:44:46;1013.56;;;31.59;65.81
37170;BME280;23062;13.952;100.608;2023-10-31T16:49:30;1013.56;;;31.60;65.77
37170;BME280;23062;13.952;100.608;2023-10-31T16:54:15;1013.58;;;31.59;65.78
37170;BME280;23062;13.952;100.608;2023-10-31T16:58:59;1013.59;;;31.58;65.84
37170;BME280;23062;13.952;100.608;2023-10-31T17:03:43;1013.57;;;31.58;65.84
37170;BME280;23062;13.952;100.608;2023-10-31T17:08:21;1013.59;;;31.57;65.85
37170;BME280;23062;13.952;100.608;2023-10-31T17:13:05;1013.55;;;31.57;65.91
37170;BME280;23062;13.952;100.608;2023-10-31T17:17:47;1013.49;;;31.57;65.86
37170;BME280;23062;13.952;100.608;2023-10-31T17:22:31;1013.40;;;31.57;65.85
37170;BME280;23062;13.952;100.608;2023-10-31T17:27:09;1013.37;;;31.58;65.76
37170;BME280;23062;13.952;100.608;2023-10-31T17:31:51;1013.36;;;31.58;65.70
37170;BME280;23062;13.952;100.608;2023-10-31T17:36:35;1013.32;;;31.55;65.77
37170;BME280;23062;13.952;100.608;2023-10-31T17:41:18;1013.39;;;31.55;65.79
37170;BME280;23062;13.952;100.608;2023-10-31T17:45:56;1013.41;;;31.57;65.71
37170;BME280;23062;13.952;100.608;2023-10-31T17:50:32;1013.33;;;31.56;65.70
37170;BME280;23062;13.952;100.608;2023-10-31T17:55:10;1013.29;;;31.55;65.77
37170;BME280;23062;13.952;100.608;2023-10-31T17:59:54;1013.24;;;31.54;65.71
37170;BME280;23062;13.952;100.608;2023-10-31T18:04:30;1013.20;;;31.55;65.62
37170;BME280;23062;13.952;100.608;2023-10-31T18:09:14;1013.12;;;31.54;65.67
37170;BME280;23062;13.952;100.608;2023-10-31T18:13:59;1013.06;;;31.52;65.67
37170;BME280;23062;13.952;100.608;2023-10-31T18:18:40;1012.90;;;31.53;65.60
37170;BME280;23062;13.952;100.608;2023-10-31T18:23:24;1012.83;;;31.52;65.67
37170;BME280;23062;13.952;100.608;2023-10-31T18:28:04;1012.86;;;31.53;65.58
37170;BME280;23062;13.952;100.608;2023-10-31T18:32:49;1012.82;;;31.52;65.59
37170;BME280;23062;13.952;100.608;2023-10-31T18:37:34;1012.77;;;31.51;65.65
37170;BME280;23062;13.952;100.608;2023-10-31T18:42:17;1012.70;;;31.51;65.64
37170;BME280;23062;13.952;100.608;2023-10-31T18:46:59;1012.57;;;31.50;65.63
37170;BME280;23062;13.952;100.608;2023-10-31T18:51:41;1012.46;;;31.50;65.60
37170;BME280;23062;13.952;100.608;2023-10-31T18:56:23;1012.45;;;31.50;65.54
37170;BME280;23062;13.952;100.608;2023-10-31T19:01:08;1012.42;;;31.49;65.57
37170;BME280;23062;13.952;100.608;2023-10-31T19:05:53;1012.44;;;31.49;65.50
37170;BME280;23062;13.952;100.608;2023-10-31T19:10:37;1012.39;;;31.47;65.51
37170;BME280;23062;13.952;100.608;2023-10-31T19:15:22;1012.36;;;31.46;65.51
37170;BME280;23062;13.952;100.608;2023-10-31T19:20:05;1012.34;;;31.48;65.46
37170;BME280;23062;13.952;100.608;2023-10-31T19:24:48;1012.22;;;31.47;65.46
37170;BME280;23062;13.952;100.608;2023-10-31T19:29:31;1012.18;;;31.48;65.38
37170;BME280;23062;13.952;100.608;2023-10-31T19:34:16;1012.15;;;31.47;65.46
37170;BME280;23062;13.952;100.608;2023-10-31T19:38:59;1012.09;;;31.46;65.41
37170;BME280;23062;13.952;100.608;2023-10-31T19:43:43;1011.99;;;31.46;65.43
37170;BME280;23062;13.952;100.608;2023-10-31T19:48:29;1011.91;;;31.44;65.48
37170;BME280;23062;13.952;100.608;2023-10-31T19:53:15;1011.85;;;31.46;65.44
37170;BME280;23062;13.952;100.608;2023-10-31T19:57:53;1011.87;;;31.45;65.52
37170;BME280;23062;13.952;100.608;2023-10-31T20:02:36;1011.82;;;31.44;65.55
37170;BME280;23062;13.952;100.608;2023-10-31T20:07:14;1011.84;;;31.45;65.39
37170;BME280;23062;13.952;100.608;2023-10-31T20:12:01;1011.88;;;31.44;65.42
37170;BME280;23062;13.952;100.608;2023-10-31T20:16:41;1011.83;;;31.42;65.36
37170;BME280;23062;13.952;100.608;2023-10-31T20:21:17;1011.71;;;31.43;65.28
37170;BME280;23062;13.952;100.608;2023-10-31T20:26:02;1011.62;;;31.41;65.04
37170;BME280;23062;13.952;100.608;2023-10-31T20:30:47;1011.64;;;31.41;64.88
37170;BME280;23062;13.952;100.608;2023-10-31T20:35:30;1011.63;;;31.41;64.89
37170;BME280;23062;13.952;100.608;2023-10-31T20:40:15;1011.67;;;31.41;64.76
37170;BME280;23062;13.952;100.608;2023-10-31T20:44:53;1011.70;;;31.39;64.77
37170;BME280;23062;13.952;100.608;2023-10-31T20:49:38;1011.65;;;31.38;64.70
37170;BME280;23062;13.952;100.608;2023-10-31T20:54:21;1011.62;;;31.38;64.67
37170;BME280;23062;13.952;100.608;2023-10-31T20:59:06;1011.60;;;31.16;64.58
37170;BME280;23062;13.952;100.608;2023-10-31T21:03:50;1011.61;;;31.08;64.22
37170;BME280;23062;13.952;100.608;2023-10-31T21:08:25;1011.62;;;31.03;64.22
37170;BME280;23062;13.952;100.608;2023-10-31T21:13:10;1011.67;;;30.78;64.45
37170;BME280;23062;13.952;100.608;2023-10-31T21:17:47;1011.68;;;30.68;64.84
37170;BME280;23062;13.952;100.608;2023-10-31T21:22:23;1011.74;;;30.49;65.00
37170;BME280;23062;13.952;100.608;2023-10-31T21:27:05;1011.76;;;30.57;64.98
37170;BME280;23062;13.952;100.608;2023-10-31T21:31:41;1011.83;;;30.57;64.75
37170;BME280;23062;13.952;100.608;2023-10-31T21:36:22;1011.77;;;30.52;65.20
37170;BME280;23062;13.952;100.608;2023-10-31T21:41:06;1011.79;;;30.54;65.51
37170;BME280;23062;13.952;100.608;2023-10-31T21:45:43;1011.78;;;30.42;65.72
37170;BME280;23062;13.952;100.608;2023-10-31T21:50:28;1011.77;;;30.43;65.96
37170;BME280;23062;13.952;100.608;2023-10-31T21:55:05;1011.81;;;29.85;68.18
37170;BME280;23062;13.952;100.608;2023-10-31T21:59:42;1011.85;;;29.70;68.56
37170;BME280;23062;13.952;100.608;2023-10-31T22:04:18;1011.90;;;29.58;68.65
37170;BME280;23062;13.952;100.608;2023-10-31T22:09:03;1012.03;;;29.51;69.10
37170;BME280;23062;13.952;100.608;2023-10-31T22:13:51;1012.15;;;29.70;68.43
37170;BME280;23062;13.952;100.608;2023-10-31T22:18:35;1012.25;;;29.83;67.96
37170;BME280;23062;13.952;100.608;2023-10-31T22:23:19;1012.21;;;29.93;67.34
37170;BME280;23062;13.952;100.608;2023-10-31T22:27:56;1012.30;;;29.84;67.60
37170;BME280;23062;13.952;100.608;2023-10-31T22:32:39;1012.36;;;29.82;67.15
37170;BME280;23062;13.952;100.608;2023-10-31T22:37:22;1012.49;;;29.88;67.13
37170;BME280;23062;13.952;100.608;2023-10-31T22:42:06;1012.60;;;29.96;66.83
37170;BME280;23062;13.952;100.608;2023-10-31T22:46:51;1012.71;;;29.92;67.04
37170;BME280;23062;13.952;100.608;2023-10-31T22:51:27;1012.78;;;29.91;67.21
37170;BME280;23062;13.952;100.608;2023-10-31T22:56:11;1012.77;;;30.31;65.75
37170;BME280;23062;13.952;100.608;2023-10-31T23:00:47;1012.88;;;30.50;65.06
37170;BME280;23062;13.952;100.608;2023-10-31T23:05:31;1012.90;;;30.56;64.71
37170;BME280;23062;13.952;100.608;2023-10-31T23:10:17;1013.02;;;30.60;64.80
37170;BME280;23062;13.952;100.608;2023-10-31T23:15:02;1013.11;;;30.61;64.77
37170;BME280;23062;13.952;100.608;2023-10-31T23:19:48;1013.19;;;30.65;64.36
37170;BME280;23062;13.952;100.608;2023-10-31T23:24:25;1013.17;;;30.63;64.28
37170;BME280;23062;13.952;100.608;2023-10-31T23:29:01;1013.23;;;30.57;64.44
37170;BME280;23062;13.952;100.608;2023-10-31T23:33:44;1013.25;;;30.66;63.95
37170;BME280;23062;13.952;100.608;2023-10-31T23:38:22;1013.26;;;30.63;64.20
37170;BME280;23062;13.952;100.608;2023-10-31T23:43:02;1013.32;;;30.65;63.81
37170;BME280;23062;13.952;100.608;2023-10-31T23:47:38;1013.38;;;30.65;63.96
37170;BME280;23062;13.952;100.608;2023-10-31T23:52:23;1013.41;;;30.65;63.81
37170;BME280;23062;13.952;100.608;2023-10-31T23:57:07;1013.52;;;30.65;63.67
